Time;durP1;ratioP1;P1;durP2;ratioP2;P2;SDS_P1;SDS_P2;PMS_P1;PMS_P2;Temp;Humidity;BMP_temperature;BMP_pressure;BME280_temperature;BME280_humidity;BME280_pressure;Samples;Min_cycle;Max_cycle;Signal;HPM_P1;HPM_P2
2022/12/21 00:01:22;;;;;;;18.67;10.18;;;4.20;92.20;;;;;;5061990;28;20978;-63
2022/12/21 00:03:53;;;;;;;18.85;10.90;;;4.20;92.10;;;;;;5066390;28;20052;-63
2022/12/21 00:06:23;;;;;;;19.30;11.45;;;4.20;92.10;;;;;;5066192;28;20142;-63
2022/12/21 00:08:52;;;;;;;15.20;9.02;;;4.20;92.10;;;;;;5065148;28;20045;-64
2022/12/21 00:11:21;;;;;;;16.88;9.50;;;4.20;91.90;;;;;;5065704;28;20087;-64
2022/12/21 00:13:57;;;;;;;19.13;10.55;;;4.20;92.10;;;;;;5063791;28;20048;-65
2022/12/21 00:16:33;;;;;;;17.10;10.32;;;4.20;92.20;;;;;;5061583;28;20392;-63
2022/12/21 00:19:01;;;;;;;18.30;9.20;;;4.30;92.30;;;;;;5068486;28;20048;-64
2022/12/21 00:21:32;;;;;;;17.55;9.63;;;4.30;92.30;;;;;;5067594;28;20049;-63
2022/12/21 00:24:01;;;;;;;17.30;9.68;;;4.30;92.30;;;;;;5066723;28;20044;-63
2022/12/21 00:26:30;;;;;;;15.25;9.63;;;4.30;92.30;;;;;;5067439;28;20043;-64
2022/12/21 00:28:59;;;;;;;18.17;10.70;;;4.30;92.10;;;;;;5067873;28;20048;-63
2022/12/21 00:31:27;;;;;;;16.75;9.50;;;4.30;92.60;;;;;;5066026;28;20044;-63
2022/12/21 00:33:55;;;;;;;14.80;9.55;;;4.30;92.50;;;;;;5067727;28;20059;-63
2022/12/21 00:36:24;;;;;;;14.43;9.48;;;4.40;92.60;;;;;;5066803;28;20406;-62
2022/12/21 00:38:51;;;;;;;16.63;9.82;;;4.30;92.50;;;;;;5048292;28;20380;-63
2022/12/21 00:41:21;;;;;;;16.20;10.30;;;4.30;92.50;;;;;;5054208;28;20048;-63
2022/12/21 00:43:49;;;;;;;17.80;10.23;;;4.40;92.60;;;;;;5065310;28;20052;-63
2022/12/21 00:46:17;;;;;;;19.88;10.70;;;4.40;92.40;;;;;;5065413;28;20068;-64
2022/12/21 00:48:45;;;;;;;17.17;10.30;;;4.40;92.50;;;;;;5063477;28;20058;-64
2022/12/21 00:51:14;;;;;;;16.88;9.73;;;4.40;92.40;;;;;;5066629;28;20895;-59
2022/12/21 00:53:41;;;;;;;16.65;9.63;;;4.30;92.40;;;;;;5063715;28;20048;-60
2022/12/21 00:56:09;;;;;;;17.20;10.30;;;4.30;92.40;;;;;;5065850;28;20045;-60
2022/12/21 00:58:38;;;;;;;19.38;11.02;;;4.30;92.30;;;;;;5064864;28;20048;-59
2022/12/21 01:01:07;;;;;;;17.20;9.63;;;4.40;92.60;;;;;;5065324;28;20052;-59
2022/12/21 01:03:34;;;;;;;17.42;10.13;;;4.30;92.50;;;;;;5059956;28;20380;-60
2022/12/21 01:06:01;;;;;;;17.27;9.63;;;4.40;92.50;;;;;;5047421;28;20048;-62
2022/12/21 01:08:29;;;;;;;18.40;10.63;;;4.40;92.40;;;;;;5061619;28;20103;-61
2022/12/21 01:11:00;;;;;;;18.73;11.05;;;4.40;92.50;;;;;;5062520;28;20072;-63
2022/12/21 01:13:30;;;;;;;16.67;10.10;;;4.40;92.50;;;;;;5046047;28;20368;-62
2022/12/21 01:15:58;;;;;;;16.85;10.07;;;4.40;92.60;;;;;;5066498;28;20052;-64
2022/12/21 01:18:26;;;;;;;19.20;11.27;;;4.40;92.60;;;;;;5045278;28;20059;-63
2022/12/21 01:20:55;;;;;;;16.58;9.52;;;4.40;92.60;;;;;;5045920;28;20074;-62
2022/12/21 01:23:22;;;;;;;18.67;10.02;;;4.40;92.30;;;;;;5061484;28;20454;-62
2022/12/21 01:25:51;;;;;;;20.10;10.65;;;4.40;92.20;;;;;;5056534;28;20626;-59
2022/12/21 01:28:17;;;;;;;17.80;10.30;;;4.40;92.60;;;;;;5059027;28;20064;-59
2022/12/21 01:30:47;;;;;;;16.80;9.43;;;4.40;92.60;;;;;;5046948;28;20084;-58
2022/12/21 01:33:18;;;;;;;17.33;10.05;;;4.40;92.60;;;;;;5071104;28;20052;-58
2022/12/21 01:35:45;;;;;;;17.58;10.02;;;4.40;92.40;;;;;;5061181;28;20059;-60
2022/12/21 01:38:13;;;;;;;17.70;9.70;;;4.40;92.10;;;;;;5066360;28;20040;-60
2022/12/21 01:40:41;;;;;;;16.33;9.85;;;4.40;92.10;;;;;;5065158;28;20051;-60
2022/12/21 01:43:38;;;;;;;17.40;10.60;;;4.40;92.10;;;;;;5050757;28;20060;-60
2022/12/21 01:46:09;;;;;;;14.75;8.88;;;4.40;92.40;;;;;;5045236;28;20453;-60
2022/12/21 01:48:44;;;;;;;15.80;9.88;;;4.30;92.00;;;;;;5049934;28;20064;-60
2022/12/21 01:51:12;;;;;;;17.40;10.30;;;4.40;92.40;;;;;;5070085;28;20049;-60
2022/12/21 01:53:43;;;;;;;17.10;10.15;;;4.40;92.30;;;;;;5045035;28;20486;-60
2022/12/21 01:56:12;;;;;;;16.15;9.68;;;4.40;92.10;;;;;;5069329;28;20509;-61
2022/12/21 01:58:40;;;;;;;17.10;9.57;;;4.40;92.00;;;;;;5049175;28;20048;-61
2022/12/21 02:01:07;;;;;;;16.80;9.98;;;4.40;92.10;;;;;;5049463;28;20044;-60
2022/12/21 02:03:40;;;;;;;17.77;10.65;;;4.40;92.00;;;;;;5067408;28;20051;-59
2022/12/21 02:06:10;;;;;;;19.27;10.77;;;4.40;92.00;;;;;;5065984;28;20044;-60
2022/12/21 02:08:37;;;;;;;15.82;10.27;;;4.40;92.10;;;;;;5069416;28;20048;-60
2022/12/21 02:11:06;;;;;;;21.08;11.07;;;4.40;91.90;;;;;;5053568;28;20053;-61
2022/12/21 02:13:33;;;;;;;16.88;9.70;;;4.40;92.00;;;;;;5068382;28;20052;-60
2022/12/21 02:16:14;;;;;;;15.70;10.38;;;4.40;92.20;;;;;;5062215;28;20040;-60
2022/12/21 02:19:14;;;;;;;18.80;10.93;;;4.40;92.20;;;;;;5067656;28;20040;-60
2022/12/21 02:21:44;;;;;;;;;;;4.30;92.30;;;;;;5049791;28;20048;-60
2022/12/21 02:24:51;;;;;;;15.80;9.65;;;4.40;92.00;;;;;;5064425;28;20359;-60
2022/12/21 02:27:50;;;;;;;17.48;9.75;;;4.40;92.30;;;;;;5068130;28;20049;-60
2022/12/21 02:30:19;;;;;;;16.00;9.35;;;4.40;92.10;;;;;;5063257;28;20106;-59
2022/12/21 02:33:10;;;;;;;15.65;10.02;;;4.40;92.00;;;;;;5068146;28;20090;-60
2022/12/21 02:35:46;;;;;;;14.07;8.48;;;4.40;92.00;;;;;;5064351;28;20052;-66
2022/12/21 02:38:32;;;;;;;16.30;9.57;;;4.40;92.20;;;;;;5070872;28;20491;-66
2022/12/21 02:41:08;;;;;;;17.60;9.68;;;4.40;92.00;;;;;;5049308;28;20047;-63
2022/12/21 02:46:43;;;;;;;15.90;9.50;;;4.40;92.40;;;;;;5069021;28;20118;-63
2022/12/21 02:49:15;;;;;;;15.77;9.70;;;4.40;92.60;;;;;;5050132;28;20052;-62
2022/12/21 02:51:49;;;;;;;16.58;10.07;;;4.50;92.50;;;;;;5047806;28;20051;-63
2022/12/21 02:54:18;;;;;;;13.18;8.70;;;4.40;92.60;;;;;;5046178;28;20106;-65
2022/12/21 02:56:46;;;;;;;15.90;8.95;;;4.40;92.30;;;;;;5052466;28;20057;-63
2022/12/21 02:59:17;;;;;;;16.02;9.25;;;4.40;92.10;;;;;;5068437;28;20069;-63
2022/12/21 03:01:52;;;;;;;;;;;4.40;92.10;;;;;;5052055;28;20051;-63
2022/12/21 03:04:42;;;;;;;15.38;9.60;;;4.50;92.30;;;;;;5068651;28;20011;-63
2022/12/21 03:07:29;;;;;;;19.15;10.10;;;4.40;92.10;;;;;;5042048;28;20063;-61
2022/12/21 03:10:06;;;;;;;16.75;10.25;;;4.50;92.60;;;;;;5064701;28;20052;-63
2022/12/21 03:12:48;;;;;;;19.08;10.65;;;4.50;92.20;;;;;;5069292;28;20135;-62
2022/12/21 03:15:20;;;;;;;17.85;10.02;;;4.50;92.50;;;;;;5044018;28;20064;-64
2022/12/21 03:17:54;;;;;;;16.50;9.60;;;4.50;92.50;;;;;;5063442;28;20063;-64
2022/12/21 03:20:29;;;;;;;15.27;10.10;;;4.50;92.40;;;;;;5049080;28;20053;-63
2022/12/21 03:23:00;;;;;;;17.02;10.07;;;4.50;92.40;;;;;;5047189;28;20125;-63
2022/12/21 03:25:31;;;;;;;16.42;9.73;;;4.50;92.60;;;;;;5064588;28;20520;-63
2022/12/21 03:28:04;;;;;;;16.70;10.10;;;4.50;92.40;;;;;;5067466;28;20048;-63
2022/12/21 03:30:35;;;;;;;15.60;9.60;;;4.50;92.60;;;;;;5062865;28;20048;-63
2022/12/21 03:33:05;;;;;;;16.50;9.82;;;4.50;92.40;;;;;;5064273;28;20098;-63
2022/12/21 03:35:38;;;;;;;15.07;9.63;;;4.50;92.40;;;;;;5066916;28;20418;-65
2022/12/21 03:38:09;;;;;;;15.38;9.82;;;4.50;92.70;;;;;;5068536;28;20482;-65
2022/12/21 03:40:41;;;;;;;16.70;10.40;;;4.50;92.60;;;;;;5068390;28;20126;-63
2022/12/21 03:43:13;;;;;;;15.68;9.68;;;4.50;92.20;;;;;;5067547;28;20135;-63
2022/12/21 03:45:46;;;;;;;15.90;9.98;;;4.50;92.60;;;;;;5066464;28;20052;-63
2022/12/21 03:48:20;;;;;;;16.23;9.98;;;4.50;92.30;;;;;;5069418;28;20048;-63
2022/12/21 03:50:51;;;;;;;15.75;9.98;;;4.60;92.50;;;;;;5065024;28;20053;-59
2022/12/21 03:53:29;;;;;;;15.82;10.10;;;4.60;92.30;;;;;;5066665;28;20045;-58
2022/12/21 03:56:00;;;;;;;16.20;9.70;;;4.50;92.40;;;;;;5067440;28;20040;-58
2022/12/21 03:58:30;;;;;;;14.52;8.93;;;4.50;92.60;;;;;;5066158;28;20048;-57
2022/12/21 04:01:05;;;;;;;15.25;9.00;;;4.60;92.60;;;;;;5064857;28;20479;-58
2022/12/21 04:03:35;;;;;;;15.13;9.50;;;4.60;92.50;;;;;;5065950;28;20055;-58
2022/12/21 04:06:08;;;;;;;16.90;10.00;;;4.60;92.50;;;;;;5066026;28;20036;-65
2022/12/21 04:08:36;;;;;;;14.18;9.20;;;4.50;92.50;;;;;;5068265;28;20059;-65
2022/12/21 04:11:02;;;;;;;16.23;9.13;;;4.60;92.40;;;;;;5067599;28;20055;-65
2022/12/21 04:13:30;;;;;;;15.52;9.13;;;4.60;92.60;;;;;;5065330;28;20712;-66
2022/12/21 04:16:06;;;;;;;15.20;9.70;;;4.60;92.60;;;;;;5063732;28;20102;-66
2022/12/21 04:21:20;;;;;;;13.80;9.18;;;4.60;92.40;;;;;;5064797;28;20381;-65
2022/12/21 04:29:15;;;;;;;14.02;8.50;;;4.60;92.50;;;;;;5069072;28;20123;-66
2022/12/21 04:31:42;;;;;;;14.10;9.38;;;4.60;92.60;;;;;;5068851;28;20044;-65
2022/12/21 04:34:09;;;;;;;14.88;9.50;;;4.60;92.50;;;;;;5068845;28;20044;-66
2022/12/21 04:39:21;;;;;;;14.77;8.93;;;4.60;92.50;;;;;;5069241;28;20044;-65
2022/12/21 04:41:48;;;;;;;14.15;8.45;;;4.60;92.50;;;;;;5068759;28;20049;-65
2022/12/21 04:44:15;;;;;;;14.32;9.20;;;4.60;92.60;;;;;;5067800;28;20407;-66
2022/12/21 04:46:42;;;;;;;16.25;9.20;;;4.60;92.60;;;;;;5063424;28;20060;-63
2022/12/21 04:49:09;;;;;;;14.13;9.07;;;4.70;92.60;;;;;;5067013;28;20048;-61
2022/12/21 04:51:37;;;;;;;14.38;8.98;;;4.60;92.50;;;;;;5066392;28;20063;-62
2022/12/21 04:54:05;;;;;;;13.18;8.43;;;4.60;92.50;;;;;;5065517;28;20044;-62
2022/12/21 04:56:32;;;;;;;14.98;8.77;;;4.70;92.40;;;;;;5067866;28;20075;-58
2022/12/21 04:58:59;;;;;;;13.02;8.05;;;4.60;92.50;;;;;;5069180;28;21149;-60
2022/12/21 05:01:26;;;;;;;13.05;8.57;;;4.60;92.60;;;;;;5068469;28;20059;-60
2022/12/21 05:03:57;;;;;;;12.82;8.48;;;4.60;92.60;;;;;;5060986;28;20052;-58
2022/12/21 05:06:24;;;;;;;17.25;9.40;;;4.70;92.50;;;;;;5066802;28;20133;-58
2022/12/21 05:08:53;;;;;;;14.10;7.80;;;4.70;92.60;;;;;;5068756;28;20056;-60
2022/12/21 05:11:24;;;;;;;14.85;8.73;;;4.70;92.50;;;;;;5066422;28;20067;-59
2022/12/21 05:13:51;;;;;;;14.82;9.35;;;4.70;92.40;;;;;;5068808;28;20044;-59
2022/12/21 05:16:20;;;;;;;13.65;8.48;;;4.70;92.50;;;;;;5068043;28;20469;-59
2022/12/21 05:18:48;;;;;;;13.73;8.63;;;4.70;92.60;;;;;;5066772;28;20044;-59
2022/12/21 05:21:15;;;;;;;13.80;8.38;;;4.70;92.60;;;;;;5066818;28;20048;-60
2022/12/21 05:23:42;;;;;;;13.48;7.85;;;4.70;92.60;;;;;;5068780;28;20125;-59
2022/12/21 05:26:11;;;;;;;14.40;7.53;;;4.70;92.60;;;;;;5068913;28;20075;-60
2022/12/21 05:28:38;;;;;;;13.35;7.60;;;4.70;92.60;;;;;;5065327;28;20822;-59
2022/12/21 05:31:05;;;;;;;13.63;8.00;;;4.70;92.60;;;;;;5068338;28;20110;-58
2022/12/21 05:33:33;;;;;;;13.70;8.07;;;4.70;92.60;;;;;;5068027;28;20049;-58
2022/12/21 05:36:02;;;;;;;13.82;7.90;;;4.70;92.60;;;;;;5069170;28;20098;-58
2022/12/21 05:38:29;;;;;;;14.40;8.27;;;4.70;92.70;;;;;;5066799;28;20517;-59
2022/12/21 05:40:56;;;;;;;14.02;8.80;;;4.70;92.50;;;;;;5066658;28;20044;-57
2022/12/21 05:43:24;;;;;;;13.07;8.30;;;4.70;92.70;;;;;;5068255;28;20079;-58
2022/12/21 05:45:51;;;;;;;13.30;8.52;;;4.70;92.60;;;;;;5066428;28;20052;-59
2022/12/21 05:48:18;;;;;;;13.95;8.65;;;4.70;92.70;;;;;;5063974;28;20052;-57
2022/12/21 05:50:45;;;;;;;14.00;9.30;;;4.80;92.70;;;;;;5065741;28;20407;-58
2022/12/21 05:53:11;;;;;;;15.80;8.73;;;4.70;92.70;;;;;;5068245;28;20052;-57
2022/12/21 05:55:38;;;;;;;14.25;8.93;;;4.70;92.70;;;;;;5059804;28;20487;-57
2022/12/21 05:58:05;;;;;;;14.57;9.13;;;4.70;92.80;;;;;;5067171;28;20052;-59
2022/12/21 06:00:33;;;;;;;14.85;8.50;;;4.80;92.80;;;;;;5054050;28;20533;-58
2022/12/21 06:03:04;;;;;;;13.88;8.85;;;4.80;92.70;;;;;;5065792;28;20071;-59
2022/12/21 06:05:31;;;;;;;12.90;8.13;;;4.80;92.70;;;;;;5067658;28;20041;-58
2022/12/21 06:07:58;;;;;;;14.80;8.68;;;4.80;92.70;;;;;;5068171;28;20110;-58
2022/12/21 06:10:25;;;;;;;13.10;7.90;;;4.80;92.80;;;;;;5067650;28;20052;-57
2022/12/21 06:12:51;;;;;;;14.43;8.40;;;4.80;92.80;;;;;;5060693;28;20121;-58
2022/12/21 06:15:19;;;;;;;13.80;7.68;;;4.80;92.80;;;;;;5070173;28;20052;-62
2022/12/21 06:17:47;;;;;;;13.50;8.02;;;4.80;92.50;;;;;;5051988;28;20048;-58
2022/12/21 06:20:15;;;;;;;11.68;7.95;;;4.80;92.80;;;;;;5052856;28;20048;-58
2022/12/21 06:22:41;;;;;;;13.45;8.00;;;4.80;92.80;;;;;;5070196;28;20739;-58
2022/12/21 06:25:09;;;;;;;13.30;8.27;;;4.80;92.80;;;;;;5068994;28;20041;-58
2022/12/21 06:27:35;;;;;;;14.00;8.50;;;4.90;92.90;;;;;;5070357;28;20102;-58
2022/12/21 06:30:03;;;;;;;11.30;6.97;;;4.80;92.80;;;;;;5071020;28;20048;-58
2022/12/21 06:32:29;;;;;;;13.77;8.20;;;4.80;92.90;;;;;;5070999;28;20048;-58
2022/12/21 06:34:58;;;;;;;12.88;7.65;;;4.90;93.00;;;;;;5072042;28;20048;-57
2022/12/21 06:37:25;;;;;;;12.55;7.78;;;4.90;92.90;;;;;;5071130;28;20135;-57
2022/12/21 06:39:51;;;;;;;14.63;8.55;;;4.90;92.90;;;;;;5070671;28;20079;-60
2022/12/21 06:42:18;;;;;;;13.68;7.40;;;4.90;92.90;;;;;;5069419;28;20443;-58
2022/12/21 06:44:45;;;;;;;12.95;7.80;;;4.90;92.90;;;;;;5069069;28;20407;-57
2022/12/21 06:47:12;;;;;;;13.70;7.90;;;4.90;92.90;;;;;;5069419;28;20052;-58
2022/12/21 06:49:39;;;;;;;11.52;7.28;;;4.90;93.00;;;;;;5070599;28;20063;-59
2022/12/21 06:52:07;;;;;;;11.68;6.82;;;4.90;92.90;;;;;;5070774;28;20040;-58
2022/12/21 06:54:34;;;;;;;14.43;7.95;;;5.00;93.10;;;;;;5070175;28;20052;-58
2022/12/21 06:57:01;;;;;;;11.57;6.45;;;5.00;93.00;;;;;;5071299;28;20040;-58
2022/12/21 06:59:30;;;;;;;10.30;6.57;;;5.00;93.00;;;;;;5068858;28;20055;-59
2022/12/21 07:01:56;;;;;;;9.10;5.43;;;5.00;93.00;;;;;;5070909;28;20391;-57
2022/12/21 07:04:23;;;;;;;9.93;6.60;;;5.00;93.00;;;;;;5070579;28;20068;-58
2022/12/21 07:06:50;;;;;;;9.57;5.88;;;5.10;92.90;;;;;;5051999;28;20037;-59
2022/12/21 07:09:18;;;;;;;10.30;5.85;;;5.00;92.90;;;;;;5069602;28;20044;-57
2022/12/21 07:11:46;;;;;;;9.85;6.20;;;5.00;92.90;;;;;;5068783;28;21039;-58
2022/12/21 07:14:14;;;;;;;11.73;6.03;;;5.10;92.90;;;;;;5068475;28;20143;-58
2022/12/21 07:16:41;;;;;;;9.23;6.13;;;5.10;92.90;;;;;;5070697;28;20094;-58
2022/12/21 07:19:07;;;;;;;12.68;6.53;;;5.10;93.00;;;;;;5070493;28;20064;-59
2022/12/21 07:21:34;;;;;;;9.68;5.47;;;5.10;93.10;;;;;;5070601;28;20487;-58
2022/12/21 07:24:01;;;;;;;9.73;6.00;;;5.10;93.10;;;;;;5069329;28;20048;-59
2022/12/21 07:26:29;;;;;;;10.48;5.78;;;5.10;93.20;;;;;;5070288;28;20135;-58
2022/12/21 07:28:56;;;;;;;12.43;6.82;;;5.10;93.30;;;;;;5067586;28;20048;-58
2022/12/21 07:31:25;;;;;;;10.68;6.85;;;5.10;93.20;;;;;;5065759;28;20052;-58
2022/12/21 07:33:53;;;;;;;9.70;6.25;;;5.10;93.30;;;;;;5068849;28;20047;-58
2022/12/21 07:36:20;;;;;;;10.38;6.38;;;5.10;93.20;;;;;;5070397;28;20398;-57
2022/12/21 07:38:47;;;;;;;10.18;6.10;;;5.20;93.20;;;;;;5069375;28;20045;-58
2022/12/21 07:41:16;;;;;;;9.27;5.95;;;5.20;93.30;;;;;;5069825;28;20051;-58
2022/12/21 07:43:44;;;;;;;10.98;6.25;;;5.20;93.30;;;;;;5068955;28;20402;-58
2022/12/21 07:46:24;;;;;;;12.15;6.35;;;5.20;93.30;;;;;;5068340;28;20545;-57
2022/12/21 07:48:53;;;;;;;11.43;6.03;;;5.20;93.20;;;;;;5049604;28;20056;-57
2022/12/21 07:51:20;;;;;;;8.55;5.90;;;5.20;93.10;;;;;;5069531;28;20048;-59
2022/12/21 07:53:47;;;;;;;11.20;6.85;;;5.20;93.20;;;;;;5068950;28;20057;-57
2022/12/21 07:56:15;;;;;;;10.98;7.28;;;5.20;93.40;;;;;;5068264;28;20051;-58
2022/12/21 07:58:44;;;;;;;13.55;6.85;;;5.20;93.60;;;;;;5068717;28;20128;-58
2022/12/21 08:01:13;;;;;;;12.15;7.72;;;5.30;93.40;;;;;;5063203;28;20128;-58
2022/12/21 08:03:42;;;;;;;11.48;7.35;;;5.30;93.30;;;;;;5068759;28;20044;-58
2022/12/21 08:06:09;;;;;;;13.63;8.27;;;5.30;93.40;;;;;;5067582;28;20048;-62
2022/12/21 08:08:38;;;;;;;16.38;8.73;;;5.30;93.60;;;;;;5067253;28;20060;-57
2022/12/21 08:11:06;;;;;;;13.48;8.77;;;5.30;93.80;;;;;;5069719;28;20047;-57
2022/12/21 08:13:33;;;;;;;13.50;8.57;;;5.30;93.90;;;;;;5068709;28;20053;-59
2022/12/21 08:16:02;;;;;;;14.85;9.40;;;5.30;93.70;;;;;;5067210;28;20513;-58
2022/12/21 08:18:32;;;;;;;15.30;9.18;;;5.30;93.60;;;;;;5067403;28;20139;-57
2022/12/21 08:20:59;;;;;;;15.30;9.18;;;5.30;93.50;;;;;;5067958;28;20076;-58
2022/12/21 08:23:26;;;;;;;13.25;8.60;;;5.40;93.40;;;;;;5068808;28;20114;-59
2022/12/21 08:25:54;;;;;;;13.98;8.43;;;5.40;93.40;;;;;;5065925;28;20052;-58
2022/12/21 08:28:21;;;;;;;13.73;8.60;;;5.40;93.80;;;;;;5067846;28;20048;-58
2022/12/21 08:30:48;;;;;;;18.02;9.80;;;5.40;93.60;;;;;;5064416;28;20049;-58
2022/12/21 08:33:17;;;;;;;14.32;8.93;;;5.40;93.60;;;;;;5068021;28;20040;-58
2022/12/21 08:35:44;;;;;;;14.07;8.68;;;5.40;93.90;;;;;;5067993;28;20074;-58
2022/12/21 08:38:11;;;;;;;13.65;8.55;;;5.40;93.90;;;;;;5068145;28;20517;-58
2022/12/21 08:40:38;;;;;;;14.25;9.13;;;5.40;93.70;;;;;;5064135;28;20067;-58
2022/12/21 08:43:05;;;;;;;15.32;9.18;;;5.40;93.60;;;;;;5055890;28;20055;-57
2022/12/21 08:45:33;;;;;;;13.23;8.98;;;5.50;93.90;;;;;;5056905;28;20048;-58
2022/12/21 08:48:00;;;;;;;13.05;8.38;;;5.50;94.10;;;;;;5053384;28;20044;-58
2022/12/21 08:50:32;;;;;;;13.40;8.20;;;5.50;93.90;;;;;;5056346;28;20057;-58
2022/12/21 08:52:59;;;;;;;13.60;7.43;;;5.50;94.00;;;;;;5057063;28;20488;-58
2022/12/21 08:55:26;;;;;;;13.65;7.85;;;5.50;94.10;;;;;;5057038;28;20049;-58
2022/12/21 08:57:53;;;;;;;14.43;8.43;;;5.60;94.10;;;;;;5058116;28;20049;-58
2022/12/21 09:00:20;;;;;;;12.80;7.82;;;5.50;94.30;;;;;;5056532;28;20049;-65
2022/12/21 09:02:47;;;;;;;13.23;7.78;;;5.60;94.30;;;;;;5055906;28;20075;-70
2022/12/21 09:05:14;;;;;;;12.38;7.85;;;5.60;94.20;;;;;;5054488;28;20130;-59
2022/12/21 09:07:42;;;;;;;13.52;7.90;;;5.60;94.20;;;;;;5057209;28;20057;-58
2022/12/21 09:10:10;;;;;;;10.38;7.13;;;5.60;93.90;;;;;;5056831;28;20051;-62
2022/12/21 09:12:36;;;;;;;13.15;8.05;;;5.60;94.00;;;;;;5048324;28;20471;-64
2022/12/21 09:15:04;;;;;;;13.13;8.30;;;5.60;93.90;;;;;;5058464;28;20466;-63
2022/12/21 09:17:30;;;;;;;12.45;8.57;;;5.60;93.90;;;;;;5056652;28;20077;-62
2022/12/21 09:19:57;;;;;;;13.88;9.25;;;5.60;94.30;;;;;;5057628;28;20048;-62
2022/12/21 09:22:25;;;;;;;14.95;8.20;;;5.60;94.30;;;;;;5057573;28;20427;-63
2022/12/21 09:24:54;;;;;;;14.00;8.75;;;5.70;94.40;;;;;;5055369;28;20129;-63
2022/12/21 09:27:21;;;;;;;13.32;8.45;;;5.70;94.40;;;;;;5057816;28;20109;-63
2022/12/21 09:29:48;;;;;;;22.88;11.25;;;5.70;94.20;;;;;;5054789;28;20081;-63
2022/12/21 09:32:15;;;;;;;23.48;12.68;;;5.70;94.10;;;;;;5057891;28;20041;-58
2022/12/21 09:34:41;;;;;;;29.33;14.65;;;5.70;94.40;;;;;;5055879;28;20044;-59
2022/12/21 09:37:08;;;;;;;32.92;19.77;;;5.70;94.50;;;;;;5057778;28;20060;-63
2022/12/21 09:39:35;;;;;;;35.92;20.48;;;5.70;94.50;;;;;;5047883;28;20044;-62
2022/12/21 09:42:17;;;;;;;39.58;22.02;;;5.70;94.30;;;;;;5064776;28;20060;-60
2022/12/21 09:45:03;;;;;;;34.17;21.45;;;5.70;94.50;;;;;;5066187;28;20407;-59
2022/12/21 09:47:36;;;;;;;30.25;19.88;;;5.70;94.40;;;;;;5062082;28;20052;-59
2022/12/21 09:50:07;;;;;;;33.88;20.10;;;5.80;94.40;;;;;;5069766;28;20103;-66
2022/12/21 09:52:39;;;;;;;30.75;19.85;;;5.80;94.40;;;;;;5071882;28;20901;-67
2022/12/21 09:55:11;;;;;;;29.55;18.60;;;5.70;94.30;;;;;;5068907;28;20044;-65
2022/12/21 09:57:39;;;;;;;29.50;19.42;;;5.80;94.40;;;;;;5071043;28;20505;-63
2022/12/21 10:00:15;;;;;;;26.88;18.63;;;5.80;94.50;;;;;;5070224;28;20051;-62
2022/12/21 10:03:07;;;;;;;31.88;20.48;;;5.80;94.50;;;;;;5071588;28;20049;-64
2022/12/21 10:05:52;;;;;;;32.47;24.02;;;5.80;94.50;;;;;;5072049;28;20049;-66
2022/12/21 10:08:42;;;;;;;31.63;23.63;;;5.90;94.70;;;;;;5071899;28;20050;-66
2022/12/21 10:11:15;;;;;;;30.88;21.88;;;5.90;94.70;;;;;;5071397;28;20521;-66
2022/12/21 10:13:53;;;;;;;28.42;21.17;;;5.90;94.70;;;;;;5072193;28;20064;-66
2022/12/21 10:16:27;;;;;;;28.08;20.33;;;5.90;94.70;;;;;;5072772;28;20269;-60
2022/12/21 10:19:02;;;;;;;24.05;18.13;;;5.90;94.60;;;;;;5071206;28;20036;-59
2022/12/21 10:21:40;;;;;;;25.80;18.05;;;5.90;94.70;;;;;;5066843;28;20403;-58
2022/12/21 10:24:18;;;;;;;21.83;16.52;;;6.00;94.70;;;;;;5072051;28;20128;-58
2022/12/21 10:26:46;;;;;;;20.80;14.93;;;6.00;94.70;;;;;;5068394;28;20071;-58
2022/12/21 10:29:20;;;;;;;19.90;15.77;;;6.00;94.80;;;;;;5072250;28;20063;-58
2022/12/21 10:31:48;;;;;;;19.42;15.02;;;6.10;94.70;;;;;;5071486;28;20057;-58
2022/12/21 10:34:18;;;;;;;19.45;14.88;;;6.10;94.90;;;;;;5072553;28;20048;-59
2022/12/21 10:36:47;;;;;;;19.83;14.02;;;6.10;94.90;;;;;;5071836;28;20495;-58
2022/12/21 10:39:17;;;;;;;18.48;13.85;;;6.20;94.90;;;;;;5069716;28;21265;-58
2022/12/21 10:41:48;;;;;;;15.23;12.65;;;6.20;94.80;;;;;;5062848;28;20430;-58
2022/12/21 10:44:17;;;;;;;17.15;12.15;;;6.20;94.90;;;;;;5059485;28;20049;-57
2022/12/21 10:46:44;;;;;;;14.00;9.65;;;6.20;94.90;;;;;;5057524;28;20057;-58
2022/12/21 10:49:19;;;;;;;13.57;9.75;;;6.30;95.00;;;;;;5059249;28;20059;-60
2022/12/21 10:51:46;;;;;;;14.00;9.48;;;6.30;95.10;;;;;;5059215;28;20135;-58
2022/12/21 10:54:13;;;;;;;10.73;7.50;;;6.30;95.00;;;;;;5057486;28;20049;-59
2022/12/21 10:56:46;;;;;;;11.85;6.93;;;6.40;95.20;;;;;;5058510;28;20045;-59
2022/12/21 10:59:22;;;;;;;11.77;7.30;;;6.40;95.20;;;;;;5057477;28;20049;-59
2022/12/21 11:01:50;;;;;;;10.40;6.15;;;6.50;95.30;;;;;;5053552;28;20041;-61
2022/12/21 11:04:27;;;;;;;9.63;5.88;;;6.50;95.30;;;;;;5059060;28;20040;-60
2022/12/21 11:07:00;;;;;;;9.23;5.75;;;6.60;95.40;;;;;;5058855;28;20059;-61
2022/12/21 11:09:35;;;;;;;8.10;5.30;;;6.60;95.50;;;;;;5060231;28;20059;-61
2022/12/21 11:12:15;;;;;;;7.75;5.00;;;6.70;95.60;;;;;;5054128;28;20128;-60
2022/12/21 11:14:43;;;;;;;8.48;4.45;;;6.70;95.60;;;;;;5058213;28;20052;-60
2022/12/21 11:17:17;;;;;;;7.40;4.38;;;6.70;95.60;;;;;;5059340;28;20040;-59
2022/12/21 11:19:44;;;;;;;6.18;4.05;;;6.80;95.70;;;;;;5057741;28;20612;-60
2022/12/21 11:22:15;;;;;;;8.90;4.97;;;6.80;95.70;;;;;;5058169;28;20040;-60
2022/12/21 11:24:45;;;;;;;5.75;4.00;;;6.80;95.70;;;;;;5058747;28;20084;-59
2022/12/21 11:27:24;;;;;;;6.47;3.63;;;6.80;95.70;;;;;;5058340;28;20045;-58
2022/12/21 11:29:55;;;;;;;5.15;3.30;;;6.90;95.80;;;;;;5059272;28;20049;-58
2022/12/21 11:32:23;;;;;;;6.22;3.90;;;6.90;95.80;;;;;;5059090;28;20056;-62
2022/12/21 11:34:53;;;;;;;5.38;3.38;;;7.00;95.80;;;;;;5059858;28;20041;-60
2022/12/21 11:37:27;;;;;;;7.07;3.72;;;7.00;95.90;;;;;;5058472;28;20518;-63
2022/12/21 11:39:57;;;;;;;5.72;3.50;;;7.00;95.90;;;;;;5057378;28;20541;-62
2022/12/21 11:42:26;;;;;;;5.53;3.10;;;7.00;95.90;;;;;;5041767;28;20054;-59
2022/12/21 11:45:17;;;;;;;5.80;3.25;;;7.10;96.00;;;;;;5040010;28;20056;-61
2022/12/21 11:47:58;;;;;;;4.88;2.65;;;7.10;95.90;;;;;;5039806;28;20065;-66
2022/12/21 11:50:43;;;;;;;4.97;2.65;;;7.20;96.00;;;;;;5041306;28;20052;-61
2022/12/21 11:53:44;;;;;;;6.40;2.55;;;7.30;96.20;;;;;;5041253;28;20049;-60
2022/12/21 11:56:23;;;;;;;4.45;2.53;;;7.30;96.20;;;;;;5040519;28;20049;-60
2022/12/21 11:59:14;;;;;;;3.75;2.17;;;7.40;96.30;;;;;;5041025;28;20053;-58
2022/12/21 12:01:56;;;;;;;4.70;2.38;;;7.50;96.30;;;;;;5039274;28;20045;-60
2022/12/21 12:04:36;;;;;;;5.32;2.50;;;7.50;96.30;;;;;;5036883;28;20057;-60
2022/12/21 12:07:29;;;;;;;6.53;2.28;;;7.60;96.40;;;;;;5040600;28;20041;-60
2022/12/21 12:10:18;;;;;;;4.95;2.92;;;7.60;96.40;;;;;;5040221;28;20052;-61
2022/12/21 12:12:55;;;;;;;5.45;2.60;;;7.60;96.40;;;;;;5036456;28;20064;-60
2022/12/21 12:15:36;;;;;;;3.90;2.00;;;7.70;96.50;;;;;;5039255;28;20056;-60
2022/12/21 12:18:23;;;;;;;4.03;1.98;;;7.70;96.50;;;;;;5038537;28;20099;-60
2022/12/21 12:21:05;;;;;;;5.13;2.50;;;7.70;96.50;;;;;;5039393;28;20052;-60
2022/12/21 12:23:39;;;;;;;4.05;1.88;;;7.70;96.50;;;;;;5041279;28;20052;-60
2022/12/21 12:26:17;;;;;;;3.97;2.10;;;7.70;96.50;;;;;;5042120;28;20506;-61
2022/12/21 12:29:20;;;;;;;3.60;1.92;;;7.70;96.50;;;;;;5040184;28;20535;-60
2022/12/21 12:32:04;;;;;;;3.70;2.10;;;7.70;96.50;;;;;;5040306;28;20056;-60
2022/12/21 12:34:47;;;;;;;3.00;1.88;;;7.70;96.50;;;;;;5040404;28;20400;-61
2022/12/21 12:37:25;;;;;;;3.78;2.00;;;7.70;96.50;;;;;;5037710;28;20048;-66
2022/12/21 12:40:02;;;;;;;5.90;1.90;;;7.70;96.50;;;;;;5041220;28;20048;-65
2022/12/21 12:42:34;;;;;;;4.32;1.98;;;7.70;96.50;;;;;;5048150;28;20045;-58
2022/12/21 12:45:15;;;;;;;5.63;2.30;;;7.80;96.50;;;;;;5048745;28;20041;-58
2022/12/21 12:47:48;;;;;;;4.45;2.10;;;7.70;96.60;;;;;;5042021;28;20075;-59
2022/12/21 12:50:22;;;;;;;3.45;1.92;;;7.70;96.60;;;;;;5049208;28;20081;-63
2022/12/21 12:53:12;;;;;;;4.25;2.00;;;7.80;96.60;;;;;;5047763;28;20501;-63
2022/12/21 12:55:46;;;;;;;4.53;2.07;;;7.80;96.60;;;;;;5040636;28;20049;-62
2022/12/21 12:58:18;;;;;;;5.40;2.70;;;7.80;96.60;;;;;;5045879;28;20456;-62
2022/12/21 13:00:58;;;;;;;4.25;2.25;;;7.90;96.60;;;;;;5048108;28;20044;-60
2022/12/21 13:03:41;;;;;;;3.97;2.20;;;7.90;96.60;;;;;;5047507;28;20061;-59
2022/12/21 13:06:19;;;;;;;4.25;2.20;;;7.90;96.60;;;;;;5049095;28;20044;-59
2022/12/21 13:08:53;;;;;;;5.78;2.55;;;7.90;96.60;;;;;;5048358;28;20049;-60
2022/12/21 13:11:32;;;;;;;4.57;2.50;;;8.00;96.60;;;;;;5046263;28;20048;-61
2022/12/21 13:14:05;;;;;;;3.90;2.08;;;8.00;96.60;;;;;;5048662;28;20049;-60
2022/12/21 13:16:37;;;;;;;6.28;2.58;;;8.00;96.60;;;;;;5047865;28;20043;-60
2022/12/21 13:19:07;;;;;;;5.85;2.40;;;8.10;96.60;;;;;;5048872;28;20053;-60
2022/12/21 13:21:39;;;;;;;4.80;2.45;;;8.10;96.60;;;;;;5043098;28;20040;-60
2022/12/21 13:24:12;;;;;;;3.80;2.20;;;8.10;96.60;;;;;;5027125;28;20045;-58